Time;durP1;ratioP1;P1;durP2;ratioP2;P2;SDS_P1;SDS_P2;PMS_P1;PMS_P2;Temp;Humidity;BMP_temperature;BMP_pressure;BME280_temperature;BME280_humidity;BME280_pressure;Samples;Min_cycle;Max_cycle;Signal;HPM_P1;HPM_P2
2021/12/01 00:00:12;;;;;;;8.33;4.77;;;;;;;-0.29;92.34;94358.19;5122918;27;20227;-76
2021/12/01 00:02:43;;;;;;;10.87;4.73;;;;;;;-0.47;93.93;94349.91;5133920;27;20225;-77
2021/12/01 00:05:12;;;;;;;8.20;5.07;;;;;;;-0.65;94.86;94350.03;5129158;27;20196;-77
2021/12/01 00:07:40;;;;;;;8.60;4.97;;;;;;;-0.64;94.37;94354.19;5127294;27;20209;-76
2021/12/01 00:10:10;;;;;;;8.97;5.63;;;;;;;-0.70;95.38;94348.91;5127618;27;20200;-76
2021/12/01 00:12:39;;;;;;;9.00;5.70;;;;;;;-0.81;96.53;94351.75;5134171;27;20659;-76
2021/12/01 00:15:09;;;;;;;9.37;6.03;;;;;;;-0.91;96.31;94341.69;5134356;27;20238;-76
2021/12/01 00:17:37;;;;;;;9.70;6.13;;;;;;;-1.08;97.69;94327.31;5127469;27;20202;-76
2021/12/01 00:20:17;;;;;;;9.30;5.83;;;;;;;-0.99;96.99;94328.94;5127970;27;20305;-76
2021/12/01 00:22:46;;;;;;;11.23;6.13;;;;;;;-0.93;97.40;94337.72;5129694;27;20199;-77
2021/12/01 00:25:17;;;;;;;11.57;6.03;;;;;;;-0.84;97.11;94324.81;5134853;27;20207;-77
2021/12/01 00:27:47;;;;;;;10.27;6.07;;;;;;;-0.91;96.76;94334.03;5133602;27;20218;-74
2021/12/01 00:30:18;;;;;;;12.07;5.87;;;;;;;-0.99;96.28;94331.47;5133721;27;20272;-74
2021/12/01 00:32:47;;;;;;;8.77;5.73;;;;;;;-0.91;97.29;94336.59;5133414;27;20203;-74
2021/12/01 00:35:16;;;;;;;8.83;5.73;;;;;;;-1.00;97.61;94350.28;5126911;27;20199;-74
2021/12/01 00:37:45;;;;;;;10.00;5.87;;;;;;;-0.95;97.24;94331.97;5130042;27;20292;-74
2021/12/01 00:40:15;;;;;;;12.23;6.30;;;;;;;-0.97;96.97;94349.97;5129591;27;20223;-74
2021/12/01 00:42:43;;;;;;;14.50;5.80;;;;;;;-0.94;96.99;94320.81;5132791;27;20210;-75
2021/12/01 00:45:17;;;;;;;14.60;6.43;;;;;;;-1.04;98.38;94332.91;5133342;27;20195;-74
2021/12/01 00:47:50;;;;;;;10.13;6.57;;;;;;;-1.02;98.72;94333.53;5132594;27;20708;-74
2021/12/01 00:50:21;;;;;;;10.53;6.27;;;;;;;-1.14;98.48;94317.75;5126408;27;20226;-74
2021/12/01 00:52:48;;;;;;;14.47;5.93;;;;;;;-1.07;98.19;94341.66;5133498;27;20646;-74
2021/12/01 00:55:22;;;;;;;10.40;6.20;;;;;;;-1.11;98.50;94314.06;5133031;27;20558;-74
2021/12/01 00:57:52;;;;;;;11.27;6.43;;;;;;;-1.07;98.47;94317.91;5132510;27;20295;-74
2021/12/01 01:00:24;;;;;;;12.03;6.50;;;;;;;-1.13;98.76;94332.09;5129400;27;20584;-73
2021/12/01 01:02:57;;;;;;;12.80;6.77;;;;;;;-1.27;99.93;94325.81;5132441;27;20581;-74
2021/12/01 01:05:24;;;;;;;11.90;6.43;;;;;;;-1.16;99.31;94325.56;5132045;27;20292;-73
2021/12/01 01:07:54;;;;;;;11.40;6.30;;;;;;;-0.96;97.80;94327.81;5132309;27;20662;-74
2021/12/01 01:10:45;;;;;;;12.57;5.83;;;;;;;-1.04;97.40;94322.72;5132342;27;20195;-73
2021/12/01 01:18:47;;;;;;;14.67;6.83;;;;;;;-0.97;97.68;94334.66;5132836;27;20198;-73
2021/12/01 01:21:17;;;;;;;11.13;5.87;;;;;;;-1.28;97.91;94321.69;5132419;27;20706;-74
2021/12/01 01:23:46;;;;;;;14.10;6.13;;;;;;;-1.16;97.92;94351.03;5132245;27;20210;-74
2021/12/01 01:26:17;;;;;;;15.87;6.10;;;;;;;-1.28;98.34;94318.34;5132367;27;20668;-73
2021/12/01 01:28:47;;;;;;;11.70;6.10;;;;;;;-1.18;98.84;94352.91;5131954;27;20218;-74
2021/12/01 01:31:17;;;;;;;10.70;6.70;;;;;;;-1.07;99.41;94356.97;5132296;27;20207;-73
2021/12/01 01:33:47;;;;;;;12.47;6.67;;;;;;;-0.97;99.56;94361.91;5131823;27;20681;-74
2021/12/01 01:36:15;;;;;;;14.27;7.87;;;;;;;-0.91;99.51;94358.75;5131762;27;20743;-74
2021/12/01 01:38:43;;;;;;;16.57;8.33;;;;;;;-0.89;99.69;94334.69;5131843;27;20731;-74
2021/12/01 01:41:13;;;;;;;15.80;8.23;;;;;;;-0.85;100.00;94345.38;5132174;27;20301;-74
2021/12/01 01:43:45;;;;;;;17.27;8.80;;;;;;;-0.89;100.00;94354.28;5131110;27;20211;-74
2021/12/01 01:46:15;;;;;;;16.00;8.90;;;;;;;-1.15;100.00;94334.78;5131923;27;20635;-75
2021/12/01 01:48:49;;;;;;;15.63;8.47;;;;;;;-1.00;100.00;94323.97;5132222;27;20213;-75
2021/12/01 01:51:23;;;;;;;18.87;8.13;;;;;;;-0.94;100.00;94324.16;5125466;27;20202;-74
2021/12/01 01:53:53;;;;;;;20.10;8.23;;;;;;;-0.97;100.00;94316.81;5132049;27;20239;-75
2021/12/01 01:56:22;;;;;;;11.33;7.40;;;;;;;-0.86;100.00;94336.13;5132514;27;20234;-75
2021/12/01 01:58:51;;;;;;;13.17;8.07;;;;;;;-0.82;100.00;94306.81;5131572;27;20279;-75
2021/12/01 02:01:43;;;;;;;18.27;7.87;;;;;;;-0.91;100.00;94303.44;5131977;27;20227;-76
2021/12/01 02:04:12;;;;;;;16.53;8.63;;;;;;;-0.92;100.00;94321.44;5130066;27;20282;-76
2021/12/01 02:06:41;;;;;;;15.77;8.17;;;;;;;-0.89;100.00;94338.97;5131924;27;20286;-76
2021/12/01 02:09:10;;;;;;;16.57;8.40;;;;;;;-0.92;100.00;94316.34;5131331;27;20779;-76
2021/12/01 02:11:38;;;;;;;14.23;7.80;;;;;;;-0.92;100.00;94306.94;5132175;27;20195;-75
2021/12/01 02:14:08;;;;;;;14.33;7.90;;;;;;;-0.93;100.00;94310.47;5131245;27;20760;-74
2021/12/01 02:16:37;;;;;;;13.60;8.40;;;;;;;-1.05;100.00;94321.91;5132023;27;20733;-75
2021/12/01 02:19:08;;;;;;;15.77;8.73;;;;;;;-1.10;100.00;94313.13;5131557;27;20218;-74
2021/12/01 02:21:39;;;;;;;15.60;9.90;;;;;;;-1.10;100.00;94313.94;5130746;27;20215;-74
2021/12/01 02:24:09;;;;;;;13.43;7.57;;;;;;;-1.02;100.00;94320.78;5131558;27;20226;-76
2021/12/01 02:26:40;;;;;;;14.60;8.20;;;;;;;-1.01;100.00;94317.31;5131894;27;20562;-77
2021/12/01 02:29:12;;;;;;;13.37;7.10;;;;;;;-1.11;100.00;94299.59;5125616;27;20282;-76
2021/12/01 02:31:41;;;;;;;18.67;7.57;;;;;;;-0.92;100.00;94299.28;5131810;27;20198;-77
2021/12/01 02:34:13;;;;;;;14.23;7.33;;;;;;;-0.85;100.00;94284.16;5131539;27;20199;-77
2021/12/01 02:36:43;;;;;;;11.83;7.83;;;;;;;-0.95;100.00;94320.00;5131551;27;20256;-77
2021/12/01 02:39:15;;;;;;;12.80;7.20;;;;;;;-1.09;100.00;94284.13;5131176;27;20252;-77
2021/12/01 02:41:44;;;;;;;13.83;7.53;;;;;;;-1.13;100.00;94264.03;5132069;27;20211;-77
2021/12/01 02:44:16;;;;;;;13.00;7.83;;;;;;;-1.04;100.00;94287.03;5131138;27;20585;-77
2021/12/01 02:46:45;;;;;;;11.70;7.23;;;;;;;-1.07;100.00;94265.19;5125004;27;20759;-77
2021/12/01 02:49:14;;;;;;;12.37;6.97;;;;;;;-1.02;100.00;94254.50;5131195;27;20238;-76
2021/12/01 02:51:45;;;;;;;9.60;5.23;;;;;;;-0.69;95.63;94276.50;5131205;27;20202;-76
2021/12/01 02:54:14;;;;;;;11.17;5.93;;;;;;;-0.59;98.52;94287.38;5131318;27;20211;-76
2021/12/01 02:56:49;;;;;;;11.40;7.10;;;;;;;-0.52;99.65;94325.81;5131206;27;20235;-75
2021/12/01 02:59:17;;;;;;;10.00;6.37;;;;;;;-0.48;100.00;94310.00;5130994;27;20277;-77
2021/12/01 03:01:47;;;;;;;14.80;7.33;;;;;;;-0.49;99.51;94307.63;5130760;27;20227;-76
2021/12/01 03:04:16;;;;;;;15.23;7.80;;;;;;;-0.49;100.00;94313.50;5130783;27;20762;-77
2021/12/01 03:06:49;;;;;;;13.47;7.10;;;;;;;-0.48;100.00;94306.66;5131294;27;20282;-76
2021/12/01 03:09:18;;;;;;;17.93;6.90;;;;;;;-0.43;99.22;94284.03;5131230;27;20210;-77
2021/12/01 03:11:46;;;;;;;12.20;7.03;;;;;;;-0.53;98.81;94294.41;5130808;27;20306;-77
2021/12/01 03:14:17;;;;;;;11.83;6.87;;;;;;;-0.58;100.00;94310.16;5130332;27;20239;-77
2021/12/01 03:16:48;;;;;;;12.17;6.47;;;;;;;-0.53;98.20;94296.94;5124703;27;20242;-76
2021/12/01 03:19:16;;;;;;;8.10;5.13;;;;;;;-0.49;98.99;94305.84;5124915;28;20303;-76
2021/12/01 03:21:47;;;;;;;6.00;3.50;;;;;;;-0.08;91.41;94309.97;5130953;28;20227;-74
2021/12/01 03:24:15;;;;;;;5.10;3.53;;;;;;;0.30;88.41;94318.69;5130660;28;20289;-74
2021/12/01 03:26:43;;;;;;;3.93;2.43;;;;;;;0.69;85.90;94321.28;5131031;28;20294;-73
2021/12/01 03:29:14;;;;;;;3.03;2.43;;;;;;;0.97;83.33;94321.63;5130078;28;20711;-73
2021/12/01 03:31:42;;;;;;;3.57;1.97;;;;;;;1.40;79.14;94326.16;5127309;27;20188;-75
2021/12/01 03:34:11;;;;;;;4.90;2.33;;;;;;;1.73;79.68;94342.09;5134656;27;20207;-73
2021/12/01 03:36:39;;;;;;;4.77;2.20;;;;;;;1.96;77.46;94347.19;5134639;27;20196;-73
2021/12/01 03:39:09;;;;;;;2.27;2.07;;;;;;;2.23;76.33;94339.72;5134152;27;20208;-73
2021/12/01 03:41:38;;;;;;;3.03;2.50;;;;;;;2.38;75.92;94337.19;5134016;27;20212;-73
2021/12/01 03:44:07;;;;;;;3.53;2.70;;;;;;;2.43;76.18;94350.28;5134401;27;20273;-73
2021/12/01 03:46:35;;;;;;;4.37;3.10;;;;;;;2.51;76.94;94350.19;5134692;27;20198;-73
2021/12/01 03:49:04;;;;;;;6.70;4.00;;;;;;;2.46;77.57;94346.56;5134167;27;20251;-73
2021/12/01 03:51:32;;;;;;;6.70;3.50;;;;;;;2.43;79.21;94342.56;5134390;27;20198;-73
2021/12/01 03:54:01;;;;;;;5.97;3.43;;;;;;;2.20;85.42;94334.97;5133728;27;20206;-73
2021/12/01 03:56:33;;;;;;;6.53;3.80;;;;;;;1.74;88.05;94315.50;5134122;27;20207;-74
2021/12/01 03:59:02;;;;;;;6.27;4.10;;;;;;;1.54;89.19;94328.00;5133750;27;20203;-73
2021/12/01 04:01:30;;;;;;;8.37;4.47;;;;;;;1.39;90.64;94331.44;5130985;27;20223;-75
2021/12/01 04:03:59;;;;;;;5.57;4.30;;;;;;;1.16;92.06;94328.88;5133856;27;20204;-75
2021/12/01 04:06:29;;;;;;;8.37;4.60;;;;;;;1.12;93.12;94332.75;5133641;27;20204;-74
2021/12/01 04:08:59;;;;;;;6.17;3.87;;;;;;;1.06;89.75;94326.53;5133930;27;20215;-74
2021/12/01 04:11:27;;;;;;;8.07;4.43;;;;;;;1.00;91.40;94322.09;5133926;27;20253;-74
2021/12/01 04:13:57;;;;;;;8.23;4.67;;;;;;;0.95;92.91;94332.00;5133217;27;20553;-75
2021/12/01 04:16:25;;;;;;;8.70;4.53;;;;;;;0.60;93.87;94311.25;5133869;27;20199;-75
2021/12/01 04:18:53;;;;;;;10.17;4.90;;;;;;;0.57;92.71;94323.41;5133358;27;20200;-74
2021/12/01 04:21:24;;;;;;;9.93;4.30;;;;;;;0.73;90.21;94319.97;5134073;27;20226;-75
2021/12/01 04:23:53;;;;;;;10.43;4.53;;;;;;;0.66;92.11;94316.50;5133863;27;20199;-75
2021/12/01 04:26:24;;;;;;;9.67;4.80;;;;;;;0.78;91.84;94311.81;5134129;27;20199;-75
2021/12/01 04:28:53;;;;;;;9.07;5.53;;;;;;;0.83;93.12;94312.09;5140883;27;20208;-76
2021/12/01 04:31:24;;;;;;;7.30;4.47;;;;;;;0.97;91.91;94314.75;5149574;27;20255;-75
2021/12/01 04:33:53;;;;;;;5.90;3.87;;;;;;;1.04;90.97;94314.84;5144493;27;20208;-75
2021/12/01 04:36:26;;;;;;;5.47;3.00;;;;;;;1.26;85.62;94315.88;5138288;27;20261;-73
2021/12/01 04:38:54;;;;;;;7.73;4.40;;;;;;;1.51;84.94;94317.28;5138345;27;20192;-73
2021/12/01 04:41:23;;;;;;;10.03;5.00;;;;;;;1.52;89.14;94319.69;5132396;27;20215;-73
2021/12/01 04:43:53;;;;;;;10.70;5.00;;;;;;;1.57;91.28;94334.53;5129584;27;20665;-75
2021/12/01 04:46:23;;;;;;;8.00;4.33;;;;;;;1.37;90.10;94336.75;5135124;27;20189;-75
2021/12/01 04:48:52;;;;;;;9.37;5.37;;;;;;;1.38;87.81;94322.19;5135018;27;20283;-74
2021/12/01 04:51:20;;;;;;;8.60;5.10;;;;;;;1.67;86.33;94342.78;5134629;27;20197;-74
2021/12/01 04:53:48;;;;;;;8.03;4.93;;;;;;;1.79;86.81;94345.75;5134778;27;20196;-74
2021/12/01 04:56:18;;;;;;;9.70;5.30;;;;;;;1.90;86.86;94353.00;5135269;27;20197;-74
2021/12/01 04:58:50;;;;;;;8.97;4.97;;;;;;;2.04;86.09;94335.13;5134041;27;20264;-74
2021/12/01 05:01:19;;;;;;;14.70;5.67;;;;;;;2.13;85.17;94351.22;5132483;27;20229;-74
2021/12/01 05:03:49;;;;;;;8.50;5.30;;;;;;;2.22;84.61;94357.88;5132395;27;20710;-74
2021/12/01 05:06:17;;;;;;;11.17;6.47;;;;;;;2.33;85.79;94352.31;5132189;27;20293;-73
2021/12/01 05:08:47;;;;;;;12.00;6.37;;;;;;;2.29;89.04;94354.41;5132865;27;20209;-74
2021/12/01 05:11:16;;;;;;;13.67;6.80;;;;;;;2.15;90.57;94357.75;5132841;27;20205;-75
2021/12/01 05:13:45;;;;;;;10.33;5.97;;;;;;;2.07;91.51;94382.66;5132273;27;20198;-74
2021/12/01 05:16:13;;;;;;;10.57;5.70;;;;;;;1.91;91.87;94390.44;5132392;27;20266;-74
2021/12/01 05:18:40;;;;;;;13.17;5.73;;;;;;;1.77;92.63;94391.19;5132439;27;20649;-74
2021/12/01 05:21:10;;;;;;;11.10;6.17;;;;;;;1.46;93.30;94381.00;5132560;27;20219;-74
2021/12/01 05:23:38;;;;;;;10.13;4.70;;;;;;;1.14;93.83;94370.00;5132442;27;20224;-74
2021/12/01 05:26:09;;;;;;;8.23;5.43;;;;;;;1.10;95.23;94394.31;5132438;27;20651;-74
2021/12/01 05:28:40;;;;;;;11.87;5.57;;;;;;;0.94;95.94;94401.25;5132260;27;20200;-74
2021/12/01 05:31:08;;;;;;;8.60;5.10;;;;;;;0.90;95.25;94393.09;5126309;27;20251;-74
2021/12/01 05:33:39;;;;;;;8.50;5.33;;;;;;;0.90;95.36;94387.97;5131996;27;20204;-74
2021/12/01 05:36:07;;;;;;;11.03;5.77;;;;;;;0.64;97.30;94379.75;5133033;27;20215;-74
2021/12/01 05:38:37;;;;;;;11.93;6.27;;;;;;;0.58;98.39;94383.78;5132057;27;20237;-74
2021/12/01 05:41:06;;;;;;;12.00;6.07;;;;;;;0.42;99.30;94367.69;5132305;27;20331;-74
2021/12/01 05:43:34;;;;;;;10.70;6.43;;;;;;;0.29;100.00;94370.75;5131344;27;20199;-73
2021/12/01 05:46:02;;;;;;;11.37;6.53;;;;;;;0.26;100.00;94365.94;5131907;27;20622;-71
2021/12/01 05:48:30;;;;;;;16.07;7.93;;;;;;;0.50;99.19;94368.47;5130899;27;20210;-70
2021/12/01 05:50:58;;;;;;;18.67;7.77;;;;;;;1.02;95.65;94380.75;5131207;27;20206;-70
2021/12/01 05:53:25;;;;;;;17.17;8.47;;;;;;;1.51;93.14;94371.84;5131438;27;20199;-70
2021/12/01 05:55:54;;;;;;;17.37;7.80;;;;;;;1.73;92.73;94371.06;5120505;27;20199;-70
2021/12/01 05:58:22;;;;;;;9.30;5.37;;;;;;;2.10;90.09;94388.25;5130811;27;20199;-69
2021/12/01 06:00:53;;;;;;;14.93;7.27;;;;;;;2.32;89.06;94380.66;5131000;27;20200;-70
2021/12/01 06:03:21;;;;;;;14.37;6.90;;;;;;;2.46;87.93;94382.44;5131275;27;20220;-70
2021/12/01 06:05:48;;;;;;;17.70;8.10;;;;;;;2.59;86.90;94383.47;5129665;27;20199;-70
2021/12/01 06:08:17;;;;;;;20.23;9.20;;;;;;;2.72;86.82;94386.19;5131608;27;20209;-71
2021/12/01 06:10:46;;;;;;;19.23;9.23;;;;;;;2.82;86.59;94391.06;5131534;27;20203;-70
2021/12/01 06:13:17;;;;;;;20.30;10.10;;;;;;;2.85;87.63;94385.59;5131041;27;20217;-70
2021/12/01 06:15:46;;;;;;;12.53;5.03;;;;;;;3.04;85.15;94394.50;5131109;27;20238;-70
2021/12/01 06:18:15;;;;;;;20.83;10.53;;;;;;;3.13;85.68;94371.13;5131288;27;20285;-70
2021/12/01 06:20:42;;;;;;;9.50;5.63;;;;;;;3.30;84.22;94371.72;5130444;27;20558;-70
2021/12/01 06:23:12;;;;;;;10.83;6.03;;;;;;;3.30;85.35;94408.47;5131000;27;20258;-71
2021/12/01 06:25:39;;;;;;;5.43;3.53;;;;;;;3.50;84.86;94388.13;5130734;27;20195;-71
2021/12/01 06:28:07;;;;;;;11.47;6.27;;;;;;;3.51;87.01;94412.06;5128663;27;20210;-72
2021/12/01 06:30:38;;;;;;;15.57;6.87;;;;;;;3.31;87.53;94415.19;5129610;27;20666;-71
2021/12/01 06:33:06;;;;;;;12.17;6.70;;;;;;;3.16;86.59;94418.75;5123812;27;20195;-70
2021/12/01 06:35:35;;;;;;;10.57;6.00;;;;;;;2.94;87.86;94406.81;5123268;27;20227;-70
2021/12/01 06:38:04;;;;;;;5.07;3.27;;;;;;;2.88;88.31;94405.75;5129830;27;20282;-71
2021/12/01 06:40:34;;;;;;;6.37;4.10;;;;;;;2.95;88.26;94421.22;5127244;27;20196;-73
2021/12/01 06:43:03;;;;;;;22.07;11.43;;;;;;;2.89;89.02;94419.38;5126403;27;20226;-71
2021/12/01 06:45:32;;;;;;;20.93;10.93;;;;;;;2.83;89.58;94410.59;5129736;27;20196;-72
2021/12/01 06:48:02;;;;;;;19.13;10.27;;;;;;;2.73;90.93;94415.22;5130406;27;20206;-71
2021/12/01 06:50:32;;;;;;;12.73;6.93;;;;;;;2.79;91.59;94422.22;5130726;27;20557;-72
2021/12/01 06:53:00;;;;;;;14.67;7.73;;;;;;;2.90;91.85;94419.19;5130644;27;20348;-72
2021/12/01 06:55:28;;;;;;;9.93;5.90;;;;;;;3.15;89.79;94435.91;5130446;27;20202;-72
2021/12/01 06:57:56;;;;;;;6.27;4.10;;;;;;;3.32;89.21;94449.34;5130784;27;20614;-72
2021/12/01 07:00:25;;;;;;;6.70;4.30;;;;;;;3.38;89.06;94448.63;5129801;27;20211;-71
2021/12/01 07:02:54;;;;;;;11.23;6.37;;;;;;;3.51;88.81;94448.00;5130188;27;20218;-71
2021/12/01 07:05:23;;;;;;;21.80;9.10;;;;;;;3.39;87.81;94458.75;5130402;27;20204;-69
2021/12/01 07:07:52;;;;;;;17.20;10.10;;;;;;;3.33;88.57;94464.59;5130689;27;20205;-69
2021/12/01 07:10:20;;;;;;;16.80;10.70;;;;;;;2.96;88.59;94453.63;5130786;27;20291;-70
2021/12/01 07:12:48;;;;;;;19.10;10.33;;;;;;;2.50;90.58;94463.19;5129213;27;20269;-69
2021/12/01 07:15:18;;;;;;;17.77;11.07;;;;;;;2.46;91.05;94457.59;5130240;27;20235;-70
2021/12/01 07:17:48;;;;;;;19.03;11.17;;;;;;;2.25;92.30;94455.69;5130824;27;20601;-70
2021/12/01 07:20:17;;;;;;;19.87;11.13;;;;;;;2.18;93.49;94449.69;5127331;27;20249;-71
2021/12/01 07:22:47;;;;;;;23.10;11.47;;;;;;;2.27;93.12;94456.34;5126040;28;20673;-70
2021/12/01 07:25:16;;;;;;;21.77;11.17;;;;;;;2.31;94.58;94443.94;5130027;28;20286;-71
2021/12/01 07:27:45;;;;;;;19.17;10.90;;;;;;;2.23;95.58;94441.47;5130291;28;20618;-71
2021/12/01 07:30:14;;;;;;;20.20;11.07;;;;;;;2.34;95.54;94437.69;5130183;28;20209;-71
2021/12/01 07:32:42;;;;;;;19.27;12.10;;;;;;;2.46;95.88;94436.28;5129545;28;20312;-71
2021/12/01 07:35:12;;;;;;;22.27;11.20;;;;;;;2.40;97.00;94440.34;5129576;28;20704;-71
2021/12/01 07:37:39;;;;;;;20.10;10.47;;;;;;;2.48;97.00;94437.72;5130014;28;20207;-71
2021/12/01 07:40:11;;;;;;;7.33;4.30;;;;;;;2.82;94.19;94435.50;5128358;28;20704;-71
2021/12/01 07:42:39;;;;;;;7.80;3.80;;;;;;;3.13;92.97;94432.72;5130091;28;20237;-71
2021/12/01 07:45:08;;;;;;;11.63;6.73;;;;;;;3.41;92.99;94450.84;5130411;28;20227;-71
2021/12/01 07:47:36;;;;;;;22.40;11.97;;;;;;;3.53;93.12;94451.19;5130085;28;20654;-71
2021/12/01 07:50:06;;;;;;;18.70;10.63;;;;;;;3.49;91.33;94455.09;5129270;28;20210;-70
2021/12/01 07:52:38;;;;;;;17.00;7.97;;;;;;;3.57;90.55;94452.44;5129926;28;20203;-71
2021/12/01 07:55:10;;;;;;;23.50;12.13;;;;;;;3.58;91.03;94466.88;5129427;28;20585;-70
2021/12/01 07:57:38;;;;;;;27.00;13.13;;;;;;;3.43;90.96;94472.81;5129954;28;20203;-70
2021/12/01 08:00:07;;;;;;;23.57;12.33;;;;;;;3.44;90.27;94471.03;5129874;28;20264;-70
2021/12/01 08:02:36;;;;;;;22.53;12.40;;;;;;;3.46;90.93;94470.88;5129867;28;20255;-70
2021/12/01 08:05:04;;;;;;;24.17;12.90;;;;;;;3.51;91.67;94473.69;5129847;28;20210;-69
2021/12/01 08:07:35;;;;;;;23.13;13.00;;;;;;;3.54;91.83;94488.75;5130126;28;20199;-72
2021/12/01 08:10:03;;;;;;;23.40;12.20;;;;;;;3.59;93.24;94491.56;5125807;28;20278;-77
2021/12/01 08:12:34;;;;;;;26.70;14.13;;;;;;;3.59;92.56;94486.44;5130249;28;20204;-77
2021/12/01 08:15:02;;;;;;;26.70;13.77;;;;;;;3.76;92.00;94483.47;5123168;28;20322;-74
2021/12/01 08:17:31;;;;;;;27.53;14.73;;;;;;;3.89;92.40;94491.34;5130045;27;20203;-74
2021/12/01 08:20:00;;;;;;;27.57;15.30;;;;;;;4.03;92.74;94483.78;5133257;27;20252;-74
2021/12/01 08:22:28;;;;;;;27.37;13.80;;;;;;;4.13;93.43;94472.22;5128718;27;20219;-75
2021/12/01 08:24:58;;;;;;;17.80;10.00;;;;;;;4.19;92.56;94470.69;5133961;27;20199;-79
2021/12/01 08:27:27;;;;;;;21.67;11.37;;;;;;;4.31;92.17;94466.63;5134140;27;20658;-75
2021/12/01 08:29:57;;;;;;;19.33;9.87;;;;;;;4.55;90.05;94481.72;5130898;27;20188;-74
2021/12/01 08:32:25;;;;;;;12.10;6.40;;;;;;;4.73;88.07;94470.97;5130465;27;20195;-75
2021/12/01 08:34:53;;;;;;;5.90;3.20;;;;;;;5.02;85.01;94481.09;5132757;27;20195;-74
2021/12/01 08:37:22;;;;;;;4.97;2.70;;;;;;;5.15;84.13;94468.28;5133002;27;20278;-75
2021/12/01 08:39:51;;;;;;;12.47;4.33;;;;;;;5.33;83.48;94466.00;5131683;27;20192;-75
2021/12/01 08:42:21;;;;;;;12.30;6.07;;;;;;;5.37;84.38;94479.31;5132850;27;20629;-75
2021/12/01 08:44:50;;;;;;;18.40;9.27;;;;;;;5.39;83.84;94503.91;5130453;27;20274;-75
2021/12/01 08:47:23;;;;;;;19.03;9.57;;;;;;;5.25;84.57;94499.66;5132498;27;20327;-75
2021/12/01 08:49:51;;;;;;;17.97;10.67;;;;;;;5.02;83.92;94505.03;5131228;27;20210;-75
2021/12/01 08:52:20;;;;;;;21.33;10.80;;;;;;;4.78;84.80;94481.50;5133228;27;20207;-75
2021/12/01 08:54:48;;;;;;;22.23;10.90;;;;;;;4.53;85.50;94479.31;5130634;27;20191;-75
2021/12/01 08:57:16;;;;;;;21.90;11.30;;;;;;;4.34;86.70;94503.09;5132814;27;20729;-75
2021/12/01 08:59:44;;;;;;;25.20;12.27;;;;;;;4.12;88.44;94486.06;5132762;27;20211;-73
2021/12/01 09:02:12;;;;;;;23.50;13.67;;;;;;;4.12;88.87;94498.13;5132020;27;20218;-73
2021/12/01 09:04:42;;;;;;;25.10;13.17;;;;;;;4.08;90.56;94476.31;5132156;27;20195;-75
2021/12/01 09:07:10;;;;;;;25.00;13.83;;;;;;;4.14;90.00;94494.38;5133010;27;20575;-75
2021/12/01 09:09:38;;;;;;;26.07;14.50;;;;;;;4.15;90.24;94506.25;5132141;27;20199;-73
2021/12/01 09:12:06;;;;;;;29.40;15.37;;;;;;;4.17;91.04;94486.31;5132490;27;20195;-74
2021/12/01 09:14:34;;;;;;;34.50;14.77;;;;;;;4.11;92.42;94496.50;5131380;27;20227;-73
2021/12/01 09:17:02;;;;;;;28.90;15.10;;;;;;;4.13;93.20;94508.19;5125638;27;20207;-73
2021/12/01 09:19:30;;;;;;;26.30;15.67;;;;;;;4.08;94.73;94495.09;5132496;27;20647;-74
2021/12/01 09:21:59;;;;;;;25.53;14.93;;;;;;;4.14;94.96;94491.81;5125961;27;20199;-74
2021/12/01 09:24:28;;;;;;;28.67;15.43;;;;;;;4.14;95.54;94480.72;5132345;27;20199;-73
2021/12/01 09:26:56;;;;;;;29.87;15.17;;;;;;;4.16;96.71;94491.63;5132721;27;20224;-76
2021/12/01 09:29:27;;;;;;;24.83;13.43;;;;;;;4.09;96.49;94493.34;5129722;27;20199;-72
2021/12/01 09:31:55;;;;;;;25.83;12.43;;;;;;;4.12;96.38;94486.06;5130011;27;20206;-73
2021/12/01 09:34:23;;;;;;;19.67;9.70;;;;;;;4.14;96.32;94488.44;5132522;27;20199;-73
2021/12/01 09:36:51;;;;;;;17.53;8.83;;;;;;;4.21;95.64;94499.59;5132236;27;20222;-73
2021/12/01 09:39:22;;;;;;;19.40;9.50;;;;;;;4.40;96.03;94493.84;5132138;27;20290;-73
2021/12/01 09:41:51;;;;;;;15.10;7.60;;;;;;;4.41;94.60;94485.16;5132367;27;20195;-73
2021/12/01 09:44:19;;;;;;;16.27;7.47;;;;;;;4.51;95.11;94483.03;5132176;27;20702;-73
2021/12/01 09:46:46;;;;;;;14.30;7.33;;;;;;;5.17;93.00;94491.28;5131919;27;20207;-74
2021/12/01 09:49:15;;;;;;;11.60;6.60;;;;;;;6.97;86.91;94470.78;5129534;27;20722;-78
2021/12/01 09:51:42;;;;;;;10.67;5.33;;;;;;;9.29;77.75;94487.34;5130690;27;20200;-73
2021/12/01 09:54:10;;;;;;;10.87;5.73;;;;;;;10.82;70.44;94494.66;5131568;27;20203;-73
2021/12/01 09:56:41;;;;;;;10.17;5.40;;;;;;;12.03;66.54;94482.81;5132245;27;20654;-73
2021/12/01 09:59:09;;;;;;;9.83;4.70;;;;;;;12.71;62.60;94488.78;5129478;27;20230;-73
2021/12/01 10:01:38;;;;;;;8.37;4.93;;;;;;;12.46;62.44;94491.72;5131353;27;20196;-73
2021/12/01 10:04:07;;;;;;;8.60;5.20;;;;;;;12.63;63.32;94488.38;5130902;27;20219;-73
2021/12/01 10:06:35;;;;;;;8.47;5.43;;;;;;;13.28;61.21;94478.22;5131935;27;20203;-73
2021/12/01 10:09:07;;;;;;;11.20;6.17;;;;;;;14.67;57.93;94489.91;5131964;27;20195;-73
2021/12/01 10:11:37;;;;;;;11.13;6.30;;;;;;;15.89;49.87;94497.69;5132155;27;20202;-74
2021/12/01 10:14:11;;;;;;;12.10;6.70;;;;;;;16.10;48.13;94498.59;5131809;27;20196;-73
2021/12/01 10:16:41;;;;;;;14.23;6.83;;;;;;;16.22;46.66;94497.31;5125689;27;20195;-74
2021/12/01 10:19:11;;;;;;;12.03;7.20;;;;;;;15.77;47.64;94500.53;5131752;27;20204;-74
2021/12/01 10:21:40;;;;;;;21.40;10.60;;;;;;;15.58;47.25;94496.75;5126304;27;20979;-73
2021/12/01 10:24:11;;;;;;;17.83;12.10;;;;;;;15.09;47.20;94496.06;5117083;27;20845;-73
2021/12/01 10:26:41;;;;;;;23.17;12.10;;;;;;;14.49;49.38;94485.81;5130501;27;20540;-73
2021/12/01 10:29:13;;;;;;;13.60;8.63;;;;;;;13.33;51.48;94486.91;5130432;27;20662;-74
2021/12/01 10:31:43;;;;;;;14.37;8.03;;;;;;;12.80;53.37;94482.16;5126795;27;20205;-73
2021/12/01 10:34:19;;;;;;;13.87;7.07;;;;;;;12.25;54.84;94470.72;5130998;27;20199;-73
2021/12/01 10:36:50;;;;;;;13.07;7.50;;;;;;;13.21;53.59;94480.22;5130664;27;20302;-73
2021/12/01 10:39:18;;;;;;;11.97;7.00;;;;;;;13.97;51.27;94482.03;5131352;27;20204;-73
2021/12/01 10:41:47;;;;;;;13.43;7.27;;;;;;;14.68;49.47;94479.22;5129857;27;20187;-73
2021/12/01 10:44:19;;;;;;;15.27;7.63;;;;;;;15.07;49.16;94489.50;5130361;27;20231;-74
2021/12/01 10:46:49;;;;;;;12.60;6.80;;;;;;;15.57;48.21;94484.69;5131302;27;20694;-73
2021/12/01 10:49:18;;;;;;;11.17;6.63;;;;;;;16.15;47.00;94481.06;5131398;27;20207;-73
2021/12/01 10:51:48;;;;;;;14.83;6.00;;;;;;;16.70;44.98;94485.72;5126955;27;20234;-77
2021/12/01 10:54:20;;;;;;;7.10;4.87;;;;;;;17.37;44.55;94485.47;5130458;27;20247;-76
2021/12/01 10:57:09;;;;;;;9.67;5.30;;;;;;;18.14;42.18;94485.09;5131153;27;20578;-76
2021/12/01 10:59:48;;;;;;;10.67;5.33;;;;;;;18.81;39.74;94478.50;5130999;27;20199;-74
2021/12/01 11:02:16;;;;;;;8.23;5.10;;;;;;;19.18;38.45;94468.22;5130758;27;20203;-74
2021/12/01 11:04:45;;;;;;;10.77;6.30;;;;;;;19.05;38.18;94465.41;5130396;27;20219;-74
2021/12/01 11:07:31;;;;;;;15.33;8.47;;;;;;;18.74;39.02;94472.72;5130302;27;20214;-75
2021/12/01 11:10:13;;;;;;;13.43;7.77;;;;;;;19.11;37.49;94459.03;5130286;27;20686;-74
2021/12/01 11:12:42;;;;;;;16.63;8.47;;;;;;;19.65;37.73;94457.00;5130666;27;20219;-74
2021/12/01 11:15:27;;;;;;;13.33;7.30;;;;;;;19.76;36.44;94457.72;5130353;27;20231;-75
2021/12/01 11:17:57;;;;;;;14.00;7.33;;;;;;;20.20;35.59;94458.25;5130460;27;20256;-75
2021/12/01 11:20:43;;;;;;;13.17;7.40;;;;;;;20.16;36.03;94474.94;5128369;27;20322;-74
2021/12/01 11:23:21;;;;;;;15.80;8.30;;;;;;;20.72;35.02;94467.16;5121513;28;20251;-75
2021/12/01 11:25:52;;;;;;;16.15;8.90;;;;;;;20.88;34.31;94457.94;5124119;28;20200;-75
2021/12/01 11:28:22;;;;;;;13.63;8.77;;;;;;;21.65;33.58;94453.00;5129369;28;20196;-75
2021/12/01 11:30:55;;;;;;;15.43;8.60;;;;;;;21.84;32.85;94451.09;5128143;28;20981;-73
2021/12/01 11:33:24;;;;;;;30.15;9.55;;;;;;;21.92;32.53;94451.25;5129932;28;20199;-73
2021/12/01 11:35:54;;;;;;;18.50;10.50;;;;;;;22.24;31.96;94458.31;5129635;28;20762;-73
2021/12/01 11:38:23;;;;;;;17.38;9.50;;;;;;;22.42;32.05;94453.97;5128398;28;20203;-73
2021/12/01 11:40:52;;;;;;;9.55;6.65;;;;;;;22.54;31.31;94446.28;5126580;28;20195;-74
2021/12/01 11:43:23;;;;;;;9.63;5.75;;;;;;;22.30;31.13;94445.75;5128651;28;20281;-74
2021/12/01 11:45:54;;;;;;;7.22;4.22;;;;;;;22.16;31.85;94447.63;5129999;28;20199;-74